FMEEFMEP

Guest
Details From FMEE - St Denis Gillot
To FMEP - St Pierre Pierrefonds
Flight Number -
Tags Routegen Generated
Created
Modified
Stats Distance 35 nm / 64 km
Max Altitude 100 ft / 30 m
Waypoints 5
Social Downloads 7
Likes 0
Share

Download

Looking for another format? Having issues loading an existing format? Contact us
Advertisement - Login to hide

Notes

Departing runway 10 FMEE. Arriving runway 12 FMEP.

Route

FMEE -20.91_+055.61 -21.09_+055.48 -21.27_+055.36 FMEP

ID Type Via Altitude (ft/m) Position (lat/lon) Dist (leg/tot) Name
O FMEE APT - 0 / 0 -20.89211 / 55.53495 - / 0 nm
-20.91_+055.61 LATLON - 100 / 30 -20.90745 / 55.61065 4 / 4 nm
-21.09_+055.48 LATLON - 100 / 30 -21.08832 / 55.48344 12 / 17 nm
-21.27_+055.36 LATLON - 100 / 30 -21.26919 / 55.35624 12 / 30 nm
O FMEP APT - 0 / 0 -21.31476 / 55.41658 4 / 34 nm

Altitude Profile

Advertisement - Login to hide

FMEE

Details ICAO FMEE (RUN)
Name Roland Garros
Region Comoros, Mayotte, Réunion and Madagascar
Timezone Indian/Reunion (UTC+4.0)
Stats Elevation 66 ft / 20 m (AMSL)
Location -20.889300° 55.517700°
Runways 2
Magnetic Variation 18.859° W

METAR

FMEE 130600Z AUTO 14015KT 9999 4600 -RA SCT030/// SCT038/// BKN044/// ///TCU 23/20 Q1021 TEMPO 4500 SHRA BECMG 13015G25KT FEW030 SCT046

Decode

TAF

TAF FMEE 130500Z 1306/1412 13015G25KT 9999 FEW030 SCT046 PROB30 TEMPO 1306/1307 4500 SHRA

Decode

Departure Runways

ID Width Length Bearing (true/mag) Surface Threshold Overrun Markings Lighting
12 148 ft / 45 m 10,492 ft / 3,198 m 102.28° / 121.13° ASPHALT 397 ft / 121 m 0 ft / 0 m APP CENTERLINE EDGE THRESHOLD REIL-OMNI
14 148 ft / 45 m 8,768 ft / 2,672 m 116.58° / 135.44° ASPHALT 328 ft / 100 m 0 ft / 0 m PREC-APP CENTERLINE EDGE THRESHOLD REIL-OMNI
30 148 ft / 45 m 10,492 ft / 3,198 m 282.26° / 301.12° ASPHALT 0 ft / 0 m 0 ft / 0 m APP CENTERLINE EDGE THRESHOLD REIL-OMNI
32 148 ft / 45 m 8,768 ft / 2,672 m 296.58° / 315.44° ASPHALT 1,175 ft / 358 m 0 ft / 0 m APP CENTERLINE EDGE THRESHOLD REIL-OMNI

FMEP

Details ICAO FMEP (ZSE)
Name ST PIERRE PIERREFONDS
Region Comoros, Mayotte, Réunion and Madagascar
Timezone Unknown
Stats Elevation 56 ft / 17 m (AMSL)
Location -21.319400° 55.422600°
Runways 1
Magnetic Variation 19.412° W

METAR

FMEP 130600Z AUTO VRB03KT CAVOK 25/18 Q1020 NOSIG

Decode

TAF

Not found

Destination Runways

ID Width Length Bearing (true/mag) Surface Threshold Overrun Markings Lighting
15 133 ft / 41 m 6,900 ft / 2,103 m 129.13° / 148.54° ASPHALT 0 ft / 0 m 0 ft / 0 m APP
33 133 ft / 41 m 6,900 ft / 2,103 m 309.12° / 328.54° ASPHALT 0 ft / 0 m 0 ft / 0 m APP

Popular Alternatives